<?xml version="1.0" encoding="UTF-8" standalone="no" ?>
<gpx xmlns="http://www.topografix.com/GPX/1/1" xmlns:xsi="http://www.w3.org/2001/XMLSchema-instance" xsi:schemaLocation="http://www.topografix.com/GPX/1/1 http://www.topografix.com/GPX/1/1/gpx.xsd" version="1.1" creator="VisuGPX - https://www.visugpx.com">
  <metadata>
    <name>Rando LN</name>
  </metadata>
  <trk>
    <name><![CDATA[Figeac]]></name>
    <extensions>
      <line xmlns="http://www.topografix.com/GPX/gpx_style/0/2">
        <color>0000FF</color>
        <width>4</width>
      </line>
    </extensions>
    <trkseg>
      <trkpt lat="44.67986" lon="1.99573">
        <ele>370.8</ele>
      </trkpt>
      <trkpt lat="44.67986" lon="1.99573">
        <ele>370.8</ele>
      </trkpt>
      <trkpt lat="44.67986" lon="1.99573">
        <ele>370.8</ele>
      </trkpt>
      <trkpt lat="44.67986" lon="1.99573">
        <ele>370.8</ele>
      </trkpt>
      <trkpt lat="44.67986" lon="1.99573">
        <ele>370.8</ele>
      </trkpt>
      <trkpt lat="44.67991" lon="1.99568">
        <ele>370.6</ele>
      </trkpt>
      <trkpt lat="44.67962" lon="1.99518">
        <ele>367.485</ele>
        <time>2015-08-05T09:13:47Z</time>
      </trkpt>
      <trkpt lat="44.67835" lon="1.99761">
        <ele>362.412</ele>
        <time>2015-08-05T09:14:07Z</time>
      </trkpt>
      <trkpt lat="44.67662" lon="1.99889">
        <ele>365.532</ele>
        <time>2015-08-05T09:14:27Z</time>
      </trkpt>
      <trkpt lat="44.67662" lon="1.99889">
        <ele>365.532</ele>
        <time>2015-08-05T09:14:27Z</time>
      </trkpt>
      <trkpt lat="44.67662" lon="1.99889">
        <ele>365.532</ele>
        <time>2015-08-05T09:14:27Z</time>
      </trkpt>
      <trkpt lat="44.67662" lon="1.99889">
        <ele>365.532</ele>
        <time>2015-08-05T09:14:27Z</time>
      </trkpt>
      <trkpt lat="44.6758" lon="2.00012">
        <ele>364.705</ele>
        <time>2015-08-05T09:14:47Z</time>
      </trkpt>
      <trkpt lat="44.674" lon="2.00083">
        <ele>356.008</ele>
        <time>2015-08-05T09:15:07Z</time>
      </trkpt>
      <trkpt lat="44.67369" lon="2.00185">
        <ele>361.757</ele>
        <time>2015-08-05T09:15:27Z</time>
      </trkpt>
      <trkpt lat="44.67257" lon="2.00405">
        <ele>368.522</ele>
        <time>2015-08-05T09:15:47Z</time>
      </trkpt>
      <trkpt lat="44.67185" lon="2.00459">
        <ele>370.062</ele>
        <time>2015-08-05T09:16:07Z</time>
      </trkpt>
      <trkpt lat="44.67152" lon="2.00494">
        <ele>370.084</ele>
        <time>2015-08-05T09:16:27Z</time>
      </trkpt>
      <trkpt lat="44.67148" lon="2.00609">
        <ele>371.326</ele>
        <time>2015-08-05T09:16:47Z</time>
      </trkpt>
      <trkpt lat="44.67099" lon="2.00659">
        <ele>362.377</ele>
        <time>2015-08-05T09:17:07Z</time>
      </trkpt>
      <trkpt lat="44.67098" lon="2.00679">
        <ele>361.973</ele>
        <time>2015-08-05T09:17:27Z</time>
      </trkpt>
      <trkpt lat="44.67122" lon="2.00742">
        <ele>365.625</ele>
        <time>2015-08-05T09:17:47Z</time>
      </trkpt>
      <trkpt lat="44.67105" lon="2.00774">
        <ele>364.428</ele>
        <time>2015-08-05T09:18:07Z</time>
      </trkpt>
      <trkpt lat="44.67038" lon="2.00803">
        <ele>359.389</ele>
        <time>2015-08-05T09:18:27Z</time>
      </trkpt>
      <trkpt lat="44.66954" lon="2.00805">
        <ele>363.617</ele>
        <time>2015-08-05T09:18:47Z</time>
      </trkpt>
      <trkpt lat="44.66921" lon="2.00827">
        <ele>366.108</ele>
        <time>2015-08-05T09:19:07Z</time>
      </trkpt>
      <trkpt lat="44.66894" lon="2.00869">
        <ele>367.848</ele>
        <time>2015-08-05T09:19:27Z</time>
      </trkpt>
      <trkpt lat="44.66847" lon="2.00914">
        <ele>363.783</ele>
        <time>2015-08-05T09:19:47Z</time>
      </trkpt>
      <trkpt lat="44.66819" lon="2.00981">
        <ele>368.053</ele>
        <time>2015-08-05T09:20:07Z</time>
      </trkpt>
      <trkpt lat="44.66803" lon="2.00979">
        <ele>366.935</ele>
        <time>2015-08-05T09:20:27Z</time>
      </trkpt>
      <trkpt lat="44.66748" lon="2.00905">
        <ele>357.277</ele>
        <time>2015-08-05T09:20:47Z</time>
      </trkpt>
      <trkpt lat="44.6672" lon="2.00906">
        <ele>356.938</ele>
        <time>2015-08-05T09:21:07Z</time>
      </trkpt>
      <trkpt lat="44.66651" lon="2.00959">
        <ele>354.844</ele>
        <time>2015-08-05T09:21:27Z</time>
      </trkpt>
      <trkpt lat="44.66629" lon="2.00982">
        <ele>354.026</ele>
        <time>2015-08-05T09:21:47Z</time>
      </trkpt>
      <trkpt lat="44.66598" lon="2.00976">
        <ele>349.051</ele>
        <time>2015-08-05T09:22:07Z</time>
      </trkpt>
      <trkpt lat="44.66487" lon="2.01006">
        <ele>348.601</ele>
        <time>2015-08-05T09:22:27Z</time>
      </trkpt>
      <trkpt lat="44.6644" lon="2.00975">
        <ele>344.911</ele>
        <time>2015-08-05T09:22:47Z</time>
      </trkpt>
      <trkpt lat="44.66417" lon="2.00962">
        <ele>344.808</ele>
        <time>2015-08-05T09:23:07Z</time>
      </trkpt>
      <trkpt lat="44.66334" lon="2.00827">
        <ele>358.821</ele>
        <time>2015-08-05T09:23:27Z</time>
      </trkpt>
      <trkpt lat="44.66256" lon="2.00756">
        <ele>371.116</ele>
        <time>2015-08-05T09:23:47Z</time>
      </trkpt>
      <trkpt lat="44.66215" lon="2.00712">
        <ele>373.746</ele>
        <time>2015-08-05T09:24:07Z</time>
      </trkpt>
      <trkpt lat="44.66161" lon="2.00693">
        <ele>379.548</ele>
        <time>2015-08-05T09:24:27Z</time>
      </trkpt>
      <trkpt lat="44.66134" lon="2.00711">
        <ele>381.72</ele>
        <time>2015-08-05T09:24:47Z</time>
      </trkpt>
      <trkpt lat="44.66093" lon="2.00768">
        <ele>379.181</ele>
        <time>2015-08-05T09:25:07Z</time>
      </trkpt>
      <trkpt lat="44.66061" lon="2.0083">
        <ele>376.067</ele>
        <time>2015-08-05T09:25:27Z</time>
      </trkpt>
      <trkpt lat="44.6605" lon="2.0085">
        <ele>373.699</ele>
        <time>2015-08-05T09:25:47Z</time>
      </trkpt>
      <trkpt lat="44.66034" lon="2.00923">
        <ele>370.956</ele>
        <time>2015-08-05T09:26:07Z</time>
      </trkpt>
      <trkpt lat="44.66008" lon="2.00971">
        <ele>370.459</ele>
        <time>2015-08-05T09:26:27Z</time>
      </trkpt>
      <trkpt lat="44.6593" lon="2.01011">
        <ele>371.014</ele>
        <time>2015-08-05T09:26:47Z</time>
      </trkpt>
      <trkpt lat="44.65859" lon="2.01034">
        <ele>373.808</ele>
        <time>2015-08-05T09:27:07Z</time>
      </trkpt>
      <trkpt lat="44.65866" lon="2.01068">
        <ele>380.611</ele>
        <time>2015-08-05T09:27:27Z</time>
      </trkpt>
      <trkpt lat="44.65841" lon="2.0122">
        <ele>387.256</ele>
        <time>2015-08-05T09:27:47Z</time>
      </trkpt>
      <trkpt lat="44.65821" lon="2.01209">
        <ele>386.146</ele>
        <time>2015-08-05T09:28:07Z</time>
      </trkpt>
      <trkpt lat="44.65701" lon="2.01208">
        <ele>377.658</ele>
        <time>2015-08-05T09:28:27Z</time>
      </trkpt>
      <trkpt lat="44.65693" lon="2.01284">
        <ele>379.91</ele>
        <time>2015-08-05T09:28:47Z</time>
      </trkpt>
      <trkpt lat="44.65704" lon="2.01377">
        <ele>380.911</ele>
        <time>2015-08-05T09:29:07Z</time>
      </trkpt>
      <trkpt lat="44.65783" lon="2.01403">
        <ele>374.797</ele>
        <time>2015-08-05T09:29:27Z</time>
      </trkpt>
      <trkpt lat="44.65839" lon="2.01399">
        <ele>373.819</ele>
        <time>2015-08-05T09:29:47Z</time>
      </trkpt>
      <trkpt lat="44.65833" lon="2.01411">
        <ele>370.759</ele>
        <time>2015-08-05T09:30:07Z</time>
      </trkpt>
      <trkpt lat="44.65756" lon="2.01477">
        <ele>357.803</ele>
        <time>2015-08-05T09:30:27Z</time>
      </trkpt>
      <trkpt lat="44.65726" lon="2.01511">
        <ele>352.423</ele>
        <time>2015-08-05T09:30:47Z</time>
      </trkpt>
      <trkpt lat="44.65672" lon="2.01521">
        <ele>344.708</ele>
        <time>2015-08-05T09:31:07Z</time>
      </trkpt>
      <trkpt lat="44.6557" lon="2.01489">
        <ele>336.221</ele>
        <time>2015-08-05T09:31:27Z</time>
      </trkpt>
      <trkpt lat="44.65515" lon="2.01527">
        <ele>322.756</ele>
        <time>2015-08-05T09:31:47Z</time>
      </trkpt>
      <trkpt lat="44.6545" lon="2.0159">
        <ele>313.576</ele>
        <time>2015-08-05T09:32:07Z</time>
      </trkpt>
      <trkpt lat="44.65339" lon="2.01643">
        <ele>303.418</ele>
        <time>2015-08-05T09:32:27Z</time>
      </trkpt>
      <trkpt lat="44.65302" lon="2.01646">
        <ele>301.02</ele>
        <time>2015-08-05T09:32:47Z</time>
      </trkpt>
      <trkpt lat="44.65277" lon="2.01638">
        <ele>302.041</ele>
        <time>2015-08-05T09:33:07Z</time>
      </trkpt>
      <trkpt lat="44.65225" lon="2.01648">
        <ele>292.187</ele>
        <time>2015-08-05T09:33:27Z</time>
      </trkpt>
      <trkpt lat="44.65124" lon="2.01652">
        <ele>280.969</ele>
        <time>2015-08-05T09:33:47Z</time>
      </trkpt>
      <trkpt lat="44.65015" lon="2.01669">
        <ele>272.497</ele>
        <time>2015-08-05T09:34:07Z</time>
      </trkpt>
      <trkpt lat="44.64998" lon="2.0169">
        <ele>270.423</ele>
        <time>2015-08-05T09:34:27Z</time>
      </trkpt>
      <trkpt lat="44.64985" lon="2.01731">
        <ele>269.125</ele>
        <time>2015-08-05T09:34:47Z</time>
      </trkpt>
      <trkpt lat="44.64957" lon="2.01767">
        <ele>267.508</ele>
        <time>2015-08-05T09:35:07Z</time>
      </trkpt>
      <trkpt lat="44.64954" lon="2.01782">
        <ele>267.555</ele>
        <time>2015-08-05T09:35:27Z</time>
      </trkpt>
      <trkpt lat="44.64913" lon="2.01862">
        <ele>264.67</ele>
        <time>2020-03-06T17:04:57Z</time>
      </trkpt>
      <trkpt lat="44.64829" lon="2.01986">
        <ele>265.83</ele>
        <time>2020-03-06T17:05:17Z</time>
      </trkpt>
      <trkpt lat="44.64776" lon="2.02046">
        <ele>269.162</ele>
        <time>2020-03-06T17:05:37Z</time>
      </trkpt>
      <trkpt lat="44.64692" lon="2.02076">
        <ele>259.794</ele>
        <time>2020-03-06T17:05:57Z</time>
      </trkpt>
      <trkpt lat="44.64655" lon="2.0208">
        <ele>260.325</ele>
        <time>2020-03-06T17:06:17Z</time>
      </trkpt>
      <trkpt lat="44.64554" lon="2.02142">
        <ele>257.161</ele>
        <time>2015-08-05T09:37:27Z</time>
      </trkpt>
      <trkpt lat="44.64524" lon="2.02178">
        <ele>257.373</ele>
        <time>2015-08-05T09:37:47Z</time>
      </trkpt>
      <trkpt lat="44.64473" lon="2.02219">
        <ele>255.981</ele>
        <time>2015-08-05T09:38:07Z</time>
      </trkpt>
      <trkpt lat="44.6445" lon="2.02229">
        <ele>257.361</ele>
        <time>2015-08-05T09:38:27Z</time>
      </trkpt>
      <trkpt lat="44.64374" lon="2.02291">
        <ele>257.517</ele>
        <time>2015-08-05T09:38:47Z</time>
      </trkpt>
      <trkpt lat="44.64278" lon="2.02359">
        <ele>259.808</ele>
        <time>2015-08-05T09:39:07Z</time>
      </trkpt>
      <trkpt lat="44.64248" lon="2.02378">
        <ele>263.654</ele>
        <time>2015-08-05T09:39:27Z</time>
      </trkpt>
      <trkpt lat="44.64222" lon="2.02399">
        <ele>261.959</ele>
        <time>2015-08-05T09:39:47Z</time>
      </trkpt>
      <trkpt lat="44.64168" lon="2.02497">
        <ele>261.949</ele>
        <time>2015-08-05T09:40:07Z</time>
      </trkpt>
      <trkpt lat="44.64123" lon="2.02542">
        <ele>258.631</ele>
        <time>2015-08-05T09:40:27Z</time>
      </trkpt>
      <trkpt lat="44.64072" lon="2.02614">
        <ele>256.343</ele>
        <time>2015-08-05T09:40:47Z</time>
      </trkpt>
      <trkpt lat="44.63975" lon="2.02697">
        <ele>252.814</ele>
        <time>2015-08-05T09:41:07Z</time>
      </trkpt>
      <trkpt lat="44.63786" lon="2.02823">
        <ele>254.75</ele>
        <time>2015-08-05T09:41:27Z</time>
      </trkpt>
      <trkpt lat="44.6376" lon="2.02825">
        <ele>256.142</ele>
        <time>2015-08-05T09:41:47Z</time>
      </trkpt>
      <trkpt lat="44.63721" lon="2.02803">
        <ele>251.548</ele>
        <time>2015-08-05T09:42:07Z</time>
      </trkpt>
      <trkpt lat="44.63615" lon="2.02794">
        <ele>248.861</ele>
        <time>2015-08-05T09:42:27Z</time>
      </trkpt>
      <trkpt lat="44.63585" lon="2.02783">
        <ele>246.117</ele>
        <time>2015-08-05T09:42:47Z</time>
      </trkpt>
      <trkpt lat="44.63467" lon="2.02829">
        <ele>240.608</ele>
        <time>2015-08-05T09:43:07Z</time>
      </trkpt>
      <trkpt lat="44.63454" lon="2.02846">
        <ele>240.24</ele>
        <time>2015-08-05T09:43:27Z</time>
      </trkpt>
      <trkpt lat="44.634" lon="2.02883">
        <ele>239.115</ele>
        <time>2015-08-05T09:43:47Z</time>
      </trkpt>
      <trkpt lat="44.63373" lon="2.02916">
        <ele>239.985</ele>
        <time>2015-08-05T09:44:07Z</time>
      </trkpt>
      <trkpt lat="44.63342" lon="2.02927">
        <ele>243.347</ele>
        <time>2015-08-05T09:44:27Z</time>
      </trkpt>
      <trkpt lat="44.63315" lon="2.02912">
        <ele>242.329</ele>
        <time>2015-08-05T09:44:47Z</time>
      </trkpt>
      <trkpt lat="44.63272" lon="2.02867">
        <ele>239.23</ele>
        <time>2015-08-05T09:45:07Z</time>
      </trkpt>
      <trkpt lat="44.63207" lon="2.02868">
        <ele>242.676</ele>
        <time>2015-08-05T09:45:27Z</time>
      </trkpt>
      <trkpt lat="44.63141" lon="2.02911">
        <ele>239.688</ele>
        <time>2015-08-05T09:45:47Z</time>
      </trkpt>
      <trkpt lat="44.63009" lon="2.02923">
        <ele>237.222</ele>
        <time>2015-08-05T09:46:07Z</time>
      </trkpt>
      <trkpt lat="44.62925" lon="2.02972">
        <ele>243.162</ele>
        <time>2015-08-05T09:46:27Z</time>
      </trkpt>
      <trkpt lat="44.62816" lon="2.02934">
        <ele>233.408</ele>
        <time>2015-08-05T09:46:47Z</time>
      </trkpt>
      <trkpt lat="44.62728" lon="2.03001">
        <ele>233.708</ele>
        <time>2015-08-05T09:47:07Z</time>
      </trkpt>
      <trkpt lat="44.62626" lon="2.02963">
        <ele>233.798</ele>
        <time>2015-08-05T09:47:27Z</time>
      </trkpt>
      <trkpt lat="44.62589" lon="2.02972">
        <ele>229.923</ele>
        <time>2015-08-05T09:47:47Z</time>
      </trkpt>
      <trkpt lat="44.62441" lon="2.03033">
        <ele>221.413</ele>
        <time>2015-08-05T09:48:07Z</time>
      </trkpt>
      <trkpt lat="44.62382" lon="2.0304">
        <ele>221.385</ele>
        <time>2015-08-05T09:48:27Z</time>
      </trkpt>
      <trkpt lat="44.62288" lon="2.03041">
        <ele>225.747</ele>
        <time>2015-08-05T09:48:47Z</time>
      </trkpt>
      <trkpt lat="44.62227" lon="2.03019">
        <ele>222.428</ele>
        <time>2015-08-05T09:49:07Z</time>
      </trkpt>
      <trkpt lat="44.62152" lon="2.0303">
        <ele>222.394</ele>
        <time>2015-08-05T09:49:27Z</time>
      </trkpt>
      <trkpt lat="44.62122" lon="2.0306">
        <ele>224.426</ele>
        <time>2015-08-05T09:49:47Z</time>
      </trkpt>
      <trkpt lat="44.62113" lon="2.03095">
        <ele>229.136</ele>
        <time>2015-08-05T09:50:07Z</time>
      </trkpt>
      <trkpt lat="44.6196" lon="2.03085">
        <ele>223.017</ele>
        <time>2015-08-05T09:50:27Z</time>
      </trkpt>
      <trkpt lat="44.61855" lon="2.03136">
        <ele>221.018</ele>
        <time>2015-08-05T09:50:47Z</time>
      </trkpt>
      <trkpt lat="44.61787" lon="2.03146">
        <ele>219.408</ele>
        <time>2015-08-05T09:51:07Z</time>
      </trkpt>
      <trkpt lat="44.61723" lon="2.03192">
        <ele>226.339</ele>
        <time>2015-08-05T09:51:27Z</time>
      </trkpt>
      <trkpt lat="44.61687" lon="2.0318">
        <ele>225.944</ele>
        <time>2015-08-05T09:51:47Z</time>
      </trkpt>
      <trkpt lat="44.6161" lon="2.03047">
        <ele>209.794</ele>
        <time>2015-08-05T09:52:07Z</time>
      </trkpt>
      <trkpt lat="44.61442" lon="2.0305">
        <ele>205.046</ele>
        <time>2015-08-05T09:52:27Z</time>
      </trkpt>
      <trkpt lat="44.61395" lon="2.03036">
        <ele>202.448</ele>
        <time>2015-08-05T09:52:47Z</time>
      </trkpt>
      <trkpt lat="44.61277" lon="2.03039">
        <ele>204.279</ele>
        <time>2015-08-05T09:53:07Z</time>
      </trkpt>
      <trkpt lat="44.6123" lon="2.03017">
        <ele>205.315</ele>
        <time>2015-08-05T09:53:27Z</time>
      </trkpt>
      <trkpt lat="44.61199" lon="2.03012">
        <ele>207.367</ele>
        <time>2015-08-05T09:53:47Z</time>
      </trkpt>
      <trkpt lat="44.61155" lon="2.02982">
        <ele>205.559</ele>
        <time>2015-08-05T09:54:07Z</time>
      </trkpt>
      <trkpt lat="44.61114" lon="2.02956">
        <ele>204.703</ele>
        <time>2015-08-05T09:54:27Z</time>
      </trkpt>
      <trkpt lat="44.61075" lon="2.02944">
        <ele>202.123</ele>
        <time>2015-08-05T09:54:47Z</time>
      </trkpt>
      <trkpt lat="44.61064" lon="2.02926">
        <ele>200.708</ele>
        <time>2015-08-05T09:55:07Z</time>
      </trkpt>
      <trkpt lat="44.61041" lon="2.02958">
        <ele>200.251</ele>
        <time>2015-08-05T09:55:27Z</time>
      </trkpt>
      <trkpt lat="44.61013" lon="2.03028">
        <ele>199.416</ele>
        <time>2015-08-05T09:55:47Z</time>
      </trkpt>
      <trkpt lat="44.61001" lon="2.03096">
        <ele>200.116</ele>
        <time>2015-08-05T09:56:07Z</time>
      </trkpt>
      <trkpt lat="44.60992" lon="2.03184">
        <ele>203.278</ele>
        <time>2015-08-05T09:56:27Z</time>
      </trkpt>
      <trkpt lat="44.60847" lon="2.03134">
        <ele>198.95</ele>
        <time>2015-08-05T09:56:47Z</time>
      </trkpt>
      <trkpt lat="44.60738" lon="2.03107">
        <ele>192.651</ele>
        <time>2020-03-06T17:26:17Z</time>
      </trkpt>
      <trkpt lat="44.60807" lon="2.02615">
        <ele>194.5</ele>
      </trkpt>
    </trkseg>
  </trk>
</gpx>